createdAt,value
2023-01-05T00:00:01.169Z,9.6
2023-01-05T00:01:01.150Z,9.6
2023-01-05T00:02:01.278Z,9.6
2023-01-05T00:03:01.174Z,9.6
2023-01-05T00:04:01.401Z,9.6
2023-01-05T00:05:01.441Z,9.6
2023-01-05T00:06:01.099Z,9.6
2023-01-05T00:07:01.095Z,9.6
2023-01-05T00:08:01.101Z,9.6
2023-01-05T00:09:01.112Z,9.6
2023-01-05T00:10:01.123Z,9.6
2023-01-05T00:11:01.125Z,9.6
2023-01-05T00:12:01.341Z,9.6
2023-01-05T00:13:01.522Z,9.7
2023-01-05T00:14:01.243Z,9.7
2023-01-05T00:15:01.157Z,9.7
2023-01-05T00:16:01.761Z,9.8
2023-01-05T00:17:01.495Z,9.7
2023-01-05T00:18:01.093Z,9.7
2023-01-05T00:19:01.067Z,9.8
2023-01-05T00:20:01.501Z,9.8
2023-01-05T00:21:01.080Z,9.8
2023-01-05T00:22:01.137Z,9.8
2023-01-05T00:23:01.195Z,9.8
2023-01-05T00:24:01.132Z,9.8
2023-01-05T00:25:03.547Z,9.9
2023-01-05T00:26:01.518Z,9.9
2023-01-05T00:27:01.133Z,10
2023-01-05T00:28:01.178Z,10
2023-01-05T00:29:01.044Z,10
2023-01-05T00:30:01.109Z,10
2023-01-05T00:31:01.199Z,10
2023-01-05T00:32:01.209Z,10
2023-01-05T00:33:01.425Z,10
2023-01-05T00:34:01.300Z,10
2023-01-05T00:35:02.990Z,10
2023-01-05T00:36:02.043Z,10
2023-01-05T00:37:01.069Z,10
2023-01-05T00:38:01.098Z,10
2023-01-05T00:39:01.440Z,10
2023-01-05T00:40:01.099Z,10
2023-01-05T00:41:01.094Z,10
2023-01-05T00:42:01.138Z,10
2023-01-05T00:43:02.162Z,10
2023-01-05T00:44:01.120Z,10
2023-01-05T00:45:01.147Z,10
2023-01-05T00:46:01.257Z,10
2023-01-05T00:47:01.143Z,10
2023-01-05T00:48:00.942Z,10
2023-01-05T00:49:01.547Z,10
2023-01-05T00:50:02.168Z,10.1
2023-01-05T00:51:01.743Z,10.1
2023-01-05T00:52:01.195Z,10.1
2023-01-05T00:53:01.903Z,10.1
2023-01-05T00:54:01.893Z,10.1
2023-01-05T00:55:01.115Z,10.1
2023-01-05T00:56:01.115Z,10.1
2023-01-05T00:57:01.485Z,10.1
2023-01-05T00:58:01.228Z,10.1
2023-01-05T00:59:02.038Z,10.1
2023-01-05T01:00:01.186Z,10.1
2023-01-05T01:01:04.196Z,10.1
2023-01-05T01:02:02.383Z,10.1
2023-01-05T01:03:01.144Z,10.1
2023-01-05T01:04:01.888Z,10.1
2023-01-05T01:05:00.976Z,10.1
2023-01-05T01:06:05.396Z,10.1
2023-01-05T01:07:02.082Z,10
2023-01-05T01:08:01.185Z,10
2023-01-05T01:09:01.097Z,10
2023-01-05T01:10:01.088Z,10
2023-01-05T01:11:08.461Z,10
2023-01-05T01:12:01.494Z,10
2023-01-05T01:13:01.115Z,10
2023-01-05T01:14:01.436Z,10
2023-01-05T01:15:01.139Z,10
2023-01-05T01:16:10.680Z,10
2023-01-05T01:17:01.594Z,9.9
2023-01-05T01:18:02.093Z,9.9
2023-01-05T01:19:05.106Z,9.9
2023-01-05T01:20:01.175Z,9.9
2023-01-05T01:21:14.299Z,10
2023-01-05T01:22:01.173Z,10
2023-01-05T01:23:01.115Z,10
2023-01-05T01:24:01.766Z,10
2023-01-05T01:25:01.486Z,10
2023-01-05T01:26:00.882Z,10
2023-01-05T01:27:01.196Z,10
2023-01-05T01:28:01.099Z,10
2023-01-05T01:29:01.067Z,10
2023-01-05T01:30:01.079Z,10
2023-01-05T01:31:00.736Z,10
2023-01-05T01:32:00.497Z,9.9
2023-01-05T01:33:00.192Z,9.9
2023-01-05T01:33:59.871Z,9.9
2023-01-05T01:34:59.626Z,9.9
2023-01-05T01:36:01.326Z,9.9
2023-01-05T01:38:01.163Z,9.9
2023-01-05T01:39:01.057Z,9.9
2023-01-05T01:40:01.378Z,9.9
2023-01-05T01:41:01.369Z,9.9
2023-01-05T01:42:01.081Z,9.8
2023-01-05T01:43:01.088Z,9.8
2023-01-05T01:44:01.098Z,9.8
2023-01-05T01:45:01.088Z,9.8
2023-01-05T01:46:01.105Z,9.8
2023-01-05T01:47:01.119Z,9.8
2023-01-05T01:48:01.137Z,9.8
2023-01-05T01:49:01.502Z,9.8
2023-01-05T01:50:01.414Z,9.8
2023-01-05T01:51:08.184Z,9.8
2023-01-05T01:52:01.146Z,9.8
2023-01-05T01:53:01.856Z,9.8
2023-01-05T01:54:01.242Z,9.8
2023-01-05T01:55:01.178Z,9.8
2023-01-05T01:56:01.086Z,9.8
2023-01-05T01:57:01.461Z,9.8
2023-01-05T01:58:01.091Z,9.8
2023-01-05T01:59:01.100Z,9.8
2023-01-05T02:00:01.136Z,9.8
2023-01-05T02:01:01.457Z,9.8
2023-01-05T02:02:01.741Z,9.8
2023-01-05T02:03:02.158Z,9.8
2023-01-05T02:04:01.175Z,9.8
2023-01-05T02:05:01.124Z,9.8
2023-01-05T02:06:01.130Z,9.8
2023-01-05T02:07:01.143Z,9.8
2023-01-05T02:08:01.265Z,9.8
2023-01-05T02:09:01.170Z,9.8
2023-01-05T02:10:01.395Z,9.8
2023-01-05T02:11:01.693Z,9.8
2023-01-05T02:12:01.883Z,9.7
2023-01-05T02:13:01.479Z,9.8
2023-01-05T02:14:01.780Z,9.8
2023-01-05T02:15:01.795Z,9.8
2023-01-05T02:16:01.821Z,9.7
2023-01-05T02:17:01.164Z,9.8
2023-01-05T02:18:01.967Z,9.7
2023-01-05T02:19:02.141Z,9.8
2023-01-05T02:20:01.118Z,9.8
2023-01-05T02:21:01.114Z,9.8
2023-01-05T02:22:01.138Z,9.8
2023-01-05T02:23:01.146Z,9.7
2023-01-05T02:24:01.046Z,9.7
2023-01-05T02:25:01.058Z,9.7
2023-01-05T02:26:01.159Z,9.7
2023-01-05T02:27:01.546Z,9.7
2023-01-05T02:28:02.119Z,9.7
2023-01-05T02:29:01.142Z,9.7
2023-01-05T02:30:01.823Z,9.7
2023-01-05T02:31:01.185Z,9.7
2023-01-05T02:32:01.891Z,9.7
2023-01-05T02:33:01.096Z,9.6
2023-01-05T02:34:01.711Z,9.6
2023-01-05T02:35:01.094Z,9.6
2023-01-05T02:36:01.315Z,9.6
2023-01-05T02:37:02.056Z,9.6
2023-01-05T02:38:01.128Z,9.6
2023-01-05T02:39:01.141Z,9.6
2023-01-05T02:40:01.146Z,9.6
2023-01-05T02:41:01.154Z,9.6
2023-01-05T02:42:05.027Z,9.6
2023-01-05T02:43:01.157Z,9.6
2023-01-05T02:44:01.281Z,9.6
2023-01-05T02:45:01.316Z,9.6
2023-01-05T02:46:00.734Z,9.6
2023-01-05T02:47:06.202Z,9.6
2023-01-05T02:48:02.141Z,9.6
2023-01-05T02:49:01.874Z,9.6
2023-01-05T02:50:02.517Z,9.6
2023-01-05T02:51:01.110Z,9.6
2023-01-05T02:52:10.823Z,9.6
2023-01-05T02:53:01.440Z,9.6
2023-01-05T02:54:01.125Z,9.6
2023-01-05T02:55:01.081Z,9.6
2023-01-05T02:56:01.129Z,9.6
2023-01-05T02:57:13.757Z,9.6
2023-01-05T02:58:01.142Z,9.6
2023-01-05T02:59:01.146Z,9.6
2023-01-05T03:00:01.074Z,9.5
2023-01-05T03:01:01.294Z,9.5
2023-01-05T03:02:16.787Z,9.5
2023-01-05T03:03:01.313Z,9.5
2023-01-05T03:04:01.085Z,9.5
2023-01-05T03:05:01.187Z,9.5
2023-01-05T03:06:01.307Z,9.5
2023-01-05T03:07:01.935Z,9.5
2023-01-05T03:08:01.118Z,9.5
2023-01-05T03:09:01.230Z,9.5
2023-01-05T03:10:01.151Z,9.5
2023-01-05T03:11:01.168Z,9.5
2023-01-05T03:12:01.646Z,9.5
2023-01-05T03:13:01.197Z,9.5
2023-01-05T03:14:01.152Z,9.5
2023-01-05T03:15:01.165Z,9.5
2023-01-05T03:16:01.125Z,9.4
2023-01-05T03:17:01.093Z,9.4
2023-01-05T03:18:01.780Z,9.4
2023-01-05T03:19:01.885Z,9.4
2023-01-05T03:20:02.498Z,9.4
2023-01-05T03:21:01.103Z,9.4
2023-01-05T03:22:01.113Z,9.3
2023-01-05T03:23:01.490Z,9.3
2023-01-05T03:24:01.127Z,9.3
2023-01-05T03:25:01.137Z,9.3
2023-01-05T03:26:01.127Z,9.3
2023-01-05T03:27:01.135Z,9.3
2023-01-05T03:28:01.132Z,9.3
2023-01-05T03:29:00.830Z,9.3
2023-01-05T03:30:00.466Z,9.3
2023-01-05T03:31:00.197Z,9.3
2023-01-05T03:31:59.828Z,9.3
2023-01-05T03:33:01.876Z,9.3
2023-01-05T03:34:01.753Z,9.3
2023-01-05T03:35:01.767Z,9.4
2023-01-05T03:36:01.758Z,9.4
2023-01-05T03:37:01.110Z,9.4
2023-01-05T03:38:01.121Z,9.4
2023-01-05T03:39:01.455Z,9.4
2023-01-05T03:40:01.056Z,9.4
2023-01-05T03:41:01.076Z,9.4
2023-01-05T03:42:00.745Z,9.5
2023-01-05T03:43:00.399Z,9.5
2023-01-05T03:44:00.127Z,9.5
2023-01-05T03:44:59.791Z,9.5
2023-01-05T03:46:01.528Z,9.5
2023-01-05T03:47:01.184Z,9.5
2023-01-05T03:48:01.169Z,9.5
2023-01-05T03:49:01.444Z,9.5
2023-01-05T03:50:01.174Z,9.5
2023-01-05T03:51:01.135Z,9.4
2023-01-05T03:52:01.085Z,9.4
2023-01-05T03:53:01.116Z,9.4
2023-01-05T03:54:01.088Z,9.4
2023-01-05T03:55:01.098Z,9.4
2023-01-05T03:56:01.102Z,9.3
2023-01-05T03:57:01.106Z,9.3
2023-01-05T03:58:01.505Z,9.3
2023-01-05T03:59:01.085Z,9.3
2023-01-05T04:00:00.771Z,9.3
2023-01-05T04:01:00.427Z,9.3
2023-01-05T04:02:00.443Z,9.3
2023-01-05T04:03:00.702Z,9.3
2023-01-05T04:04:00.668Z,9.3
2023-01-05T04:05:00.459Z,9.3
2023-01-05T04:06:00.047Z,9.3
2023-01-05T04:06:59.735Z,9.3
2023-01-05T04:08:01.896Z,9.3
2023-01-05T04:09:01.416Z,9.3
2023-01-05T04:10:01.150Z,9.3
2023-01-05T04:11:01.101Z,9.3
2023-01-05T04:12:01.123Z,9.3
2023-01-05T04:13:01.105Z,9.3
2023-01-05T04:14:01.431Z,9.3
2023-01-05T04:15:01.220Z,9.3
2023-01-05T04:16:01.117Z,9.3
2023-01-05T04:17:01.227Z,9.3
2023-01-05T04:18:01.161Z,9.3
2023-01-05T04:19:01.812Z,9.3
2023-01-05T04:20:01.847Z,9.3
2023-01-05T04:21:01.460Z,9.3
2023-01-05T04:22:01.101Z,9.3
2023-01-05T04:23:00.924Z,9.3
2023-01-05T04:24:01.534Z,9.3
2023-01-05T04:25:01.471Z,9.3
2023-01-05T04:26:01.138Z,9.3
2023-01-05T04:27:01.099Z,9.3
2023-01-05T04:28:03.557Z,9.3
2023-01-05T04:29:01.107Z,9.3
2023-01-05T04:30:01.137Z,9.3
2023-01-05T04:31:01.345Z,9.3
2023-01-05T04:32:02.451Z,9.3
2023-01-05T04:33:06.206Z,9.3
2023-01-05T04:34:01.144Z,9.3
2023-01-05T04:35:07.026Z,9.3
2023-01-05T04:36:01.171Z,9.3
2023-01-05T04:37:01.155Z,9.3
2023-01-05T04:38:09.339Z,9.3
2023-01-05T04:39:01.079Z,9.3
2023-01-05T04:40:02.081Z,9.3
2023-01-05T04:41:01.129Z,9.3
2023-01-05T04:42:01.102Z,9.3
2023-01-05T04:43:10.809Z,9.3
2023-01-05T04:44:01.482Z,9.3
2023-01-05T04:45:01.108Z,9.3
2023-01-05T04:46:01.180Z,9.3
2023-01-05T04:47:01.151Z,9.3
2023-01-05T04:48:13.813Z,9.3
2023-01-05T04:49:01.878Z,9.3
2023-01-05T04:50:02.593Z,9.3
2023-01-05T04:51:01.109Z,9.3
2023-01-05T04:52:01.168Z,9.3
2023-01-05T04:53:16.552Z,9.3
2023-01-05T04:54:02.292Z,9.3
2023-01-05T04:55:01.165Z,9.3
2023-01-05T04:56:01.141Z,9.3
2023-01-05T04:57:01.079Z,9.3
2023-01-05T04:58:02.003Z,9.3
2023-01-05T04:59:01.793Z,9.3
2023-01-05T05:00:01.158Z,9.3
2023-01-05T05:01:04.042Z,9.3
2023-01-05T05:02:02.426Z,9.4
2023-01-05T05:03:01.468Z,9.3
2023-01-05T05:04:01.133Z,9.3
2023-01-05T05:05:01.184Z,9.3
2023-01-05T05:06:01.139Z,9.3
2023-01-05T05:07:01.175Z,9.3
2023-01-05T05:08:01.210Z,9.3
2023-01-05T05:09:01.161Z,9.3
2023-01-05T05:10:01.181Z,9.3
2023-01-05T05:11:01.122Z,9.4
2023-01-05T05:12:01.106Z,9.4
2023-01-05T05:13:01.109Z,9.4
2023-01-05T05:14:01.092Z,9.4
2023-01-05T05:15:01.064Z,9.4
2023-01-05T05:16:01.112Z,9.5
2023-01-05T05:17:01.147Z,9.5
2023-01-05T05:18:07.083Z,9.5
2023-01-05T05:19:01.525Z,9.5
2023-01-05T05:20:01.252Z,9.5
2023-01-05T05:21:01.128Z,9.5
2023-01-05T05:22:01.150Z,9.5
2023-01-05T05:23:01.037Z,9.5
2023-01-05T05:24:01.150Z,9.5
2023-01-05T05:25:01.393Z,9.5
2023-01-05T05:26:01.378Z,9.5
2023-01-05T05:27:01.398Z,9.5
2023-01-05T05:28:01.396Z,9.5
2023-01-05T05:29:02.020Z,9.5
2023-01-05T05:30:01.126Z,9.5
2023-01-05T05:31:01.219Z,9.5
2023-01-05T05:32:01.084Z,9.5
2023-01-05T05:33:01.169Z,9.5
2023-01-05T05:34:01.124Z,9.5
2023-01-05T05:35:01.366Z,9.5
2023-01-05T05:36:01.506Z,9.5
2023-01-05T05:37:01.240Z,9.5
2023-01-05T05:38:02.459Z,9.5
2023-01-05T05:39:01.873Z,9.5
2023-01-05T05:40:01.073Z,9.5
2023-01-05T05:41:01.055Z,9.5
2023-01-05T05:42:01.708Z,9.6
2023-01-05T05:43:01.075Z,9.6
2023-01-05T05:44:01.176Z,9.6
2023-01-05T05:45:01.094Z,9.6
2023-01-05T05:46:01.065Z,9.6
2023-01-05T05:47:01.173Z,9.6
2023-01-05T05:48:01.146Z,9.6
2023-01-05T05:49:01.449Z,9.6
2023-01-05T05:50:01.143Z,9.6
2023-01-05T05:51:00.803Z,9.6
2023-01-05T05:52:00.517Z,9.6
2023-01-05T05:53:00.220Z,9.6
2023-01-05T05:53:59.926Z,9.6
2023-01-05T05:54:59.585Z,9.6
2023-01-05T05:56:01.536Z,9.6
2023-01-05T05:57:01.161Z,9.6
2023-01-05T05:58:01.194Z,9.6
2023-01-05T05:59:02.087Z,9.6
2023-01-05T06:00:01.897Z,9.6
2023-01-05T06:01:01.073Z,9.6
2023-01-05T06:02:01.203Z,9.6
2023-01-05T06:03:01.240Z,9.6
2023-01-05T06:04:02.061Z,9.6
2023-01-05T06:05:02.468Z,9.6
2023-01-05T06:06:01.277Z,9.7
2023-01-05T06:07:01.121Z,9.7
2023-01-05T06:08:01.122Z,9.7
2023-01-05T06:09:01.151Z,9.7
2023-01-05T06:10:01.784Z,9.7
2023-01-05T06:11:01.817Z,9.8
2023-01-05T06:12:02.184Z,9.7
2023-01-05T06:13:01.321Z,9.8
2023-01-05T06:14:00.978Z,9.8
2023-01-05T06:15:01.045Z,9.7
2023-01-05T06:16:01.101Z,9.7
2023-01-05T06:17:01.081Z,9.7
2023-01-05T06:18:01.213Z,9.7
2023-01-05T06:19:04.406Z,9.7
2023-01-05T06:20:02.427Z,9.7
2023-01-05T06:21:02.449Z,9.7
2023-01-05T06:22:01.800Z,9.8
2023-01-05T06:23:01.115Z,9.8
2023-01-05T06:24:06.744Z,9.8
2023-01-05T06:25:01.084Z,9.8
2023-01-05T06:26:01.131Z,9.8
2023-01-05T06:27:01.062Z,9.8
2023-01-05T06:28:01.178Z,9.8
2023-01-05T06:29:10.037Z,9.8
2023-01-05T06:30:01.488Z,9.8
2023-01-05T06:31:01.282Z,9.8
2023-01-05T06:32:01.065Z,9.8
2023-01-05T06:33:01.453Z,9.8
2023-01-05T06:34:12.607Z,9.8
2023-01-05T06:35:01.086Z,9.8
2023-01-05T06:36:01.093Z,9.8
2023-01-05T06:37:02.576Z,9.8
2023-01-05T06:38:01.816Z,9.8
2023-01-05T06:39:16.050Z,9.8
2023-01-05T06:40:02.169Z,9.8
2023-01-05T06:41:01.942Z,9.8
2023-01-05T06:42:01.126Z,9.8
2023-01-05T06:43:01.149Z,9.8
2023-01-05T06:44:01.150Z,9.8
2023-01-05T06:45:01.159Z,9.7
2023-01-05T06:46:01.634Z,9.7
2023-01-05T06:47:01.089Z,9.7
2023-01-05T06:48:01.271Z,9.7
2023-01-05T06:49:01.272Z,9.7
2023-01-05T06:50:01.080Z,9.7
2023-01-05T06:51:01.102Z,9.7
2023-01-05T06:52:01.084Z,9.7
2023-01-05T06:53:01.411Z,9.7
2023-01-05T06:54:01.116Z,9.7
2023-01-05T06:55:01.114Z,9.7
2023-01-05T06:56:01.125Z,9.7
2023-01-05T06:57:01.392Z,9.7
2023-01-05T06:58:01.606Z,9.7
2023-01-05T06:59:05.533Z,9.6
2023-01-05T07:00:01.332Z,9.6
2023-01-05T07:01:02.730Z,9.6
2023-01-05T07:02:01.236Z,9.6
2023-01-05T07:03:01.101Z,9.6
2023-01-05T07:04:01.193Z,9.6
2023-01-05T07:05:01.398Z,9.6
2023-01-05T07:06:01.461Z,9.6
2023-01-05T07:07:01.208Z,9.6
2023-01-05T07:08:01.116Z,9.5
2023-01-05T07:09:04.802Z,9.6
2023-01-05T07:10:01.069Z,9.5
2023-01-05T07:11:01.117Z,9.5
2023-01-05T07:12:01.201Z,9.6
2023-01-05T07:13:01.065Z,9.6
2023-01-05T07:14:01.119Z,9.6
2023-01-05T07:15:01.263Z,9.6
2023-01-05T07:16:01.166Z,9.6
2023-01-05T07:17:01.947Z,9.6
2023-01-05T07:18:01.201Z,9.6
2023-01-05T07:19:01.169Z,9.6
2023-01-05T07:20:01.067Z,9.6
2023-01-05T07:21:01.112Z,9.6
2023-01-05T07:22:01.091Z,9.6
2023-01-05T07:23:01.093Z,9.6
2023-01-05T07:24:01.092Z,9.6
2023-01-05T07:25:01.117Z,9.6
2023-01-05T07:26:01.098Z,9.6
2023-01-05T07:27:07.623Z,9.6
2023-01-05T07:28:01.120Z,9.6
2023-01-05T07:29:04.443Z,9.6
2023-01-05T07:30:01.558Z,9.6
2023-01-05T07:31:01.072Z,9.6
2023-01-05T07:32:00.906Z,9.6
2023-01-05T07:33:01.145Z,9.6
2023-01-05T07:34:01.869Z,9.6
2023-01-05T07:35:00.856Z,9.6
2023-01-05T07:36:00.602Z,9.6
2023-01-05T07:37:00.522Z,9.6
2023-01-05T07:38:00.274Z,9.6
2023-01-05T07:38:59.933Z,9.6
2023-01-05T07:39:59.560Z,9.6
2023-01-05T07:41:01.183Z,9.6
2023-01-05T07:42:01.142Z,9.6
2023-01-05T07:43:01.120Z,9.6
2023-01-05T07:44:01.115Z,9.6
2023-01-05T07:45:01.066Z,9.6
2023-01-05T07:46:01.358Z,9.6
2023-01-05T07:47:01.275Z,9.6
2023-01-05T07:48:01.296Z,9.6
2023-01-05T07:49:01.296Z,9.6
2023-01-05T07:50:01.157Z,9.6
2023-01-05T07:51:01.196Z,9.6
2023-01-05T07:52:00.964Z,9.6
2023-01-05T07:53:01.087Z,9.6
2023-01-05T07:54:01.215Z,9.6
2023-01-05T07:55:01.076Z,9.6
2023-01-05T07:56:01.085Z,9.6
2023-01-05T07:57:01.087Z,9.6
2023-01-05T07:58:01.108Z,9.6
2023-01-05T07:59:05.236Z,9.6
2023-01-05T08:00:01.815Z,9.6
2023-01-05T08:01:02.565Z,9.6
2023-01-05T08:02:01.666Z,9.5
2023-01-05T08:03:01.141Z,9.6
2023-01-05T08:04:01.202Z,9.5
2023-01-05T08:05:04.201Z,9.5
2023-01-05T08:06:01.957Z,9.5
2023-01-05T08:07:01.594Z,9.5
2023-01-05T08:08:00.710Z,9.5
2023-01-05T08:09:00.562Z,9.5
2023-01-05T08:10:05.842Z,9.5
2023-01-05T08:11:02.144Z,9.5
2023-01-05T08:12:01.092Z,9.5
2023-01-05T08:13:00.920Z,9.5
2023-01-05T08:14:01.113Z,9.5
2023-01-05T08:15:09.696Z,9.5
2023-01-05T08:16:01.119Z,9.5
2023-01-05T08:17:01.470Z,9.5
2023-01-05T08:18:01.394Z,9.5
2023-01-05T08:19:04.197Z,9.5
2023-01-05T08:20:12.587Z,9.5
2023-01-05T08:21:02.955Z,9.5
2023-01-05T08:22:01.147Z,9.5
2023-01-05T08:23:01.221Z,9.5
2023-01-05T08:24:01.064Z,9.6
2023-01-05T08:25:15.522Z,9.5
2023-01-05T08:26:01.431Z,9.5
2023-01-05T08:27:01.492Z,9.5
2023-01-05T08:28:01.503Z,9.5
2023-01-05T08:29:01.082Z,9.6
2023-01-05T08:30:01.124Z,9.6
2023-01-05T08:31:01.101Z,9.6
2023-01-05T08:32:01.135Z,9.6
2023-01-05T08:33:00.826Z,9.6
2023-01-05T08:34:00.552Z,9.6
2023-01-05T08:35:00.198Z,9.6
2023-01-05T08:35:59.789Z,9.6
2023-01-05T08:37:01.615Z,9.6
2023-01-05T08:38:01.184Z,9.6
2023-01-05T08:39:01.175Z,9.6
2023-01-05T08:40:01.058Z,9.6
2023-01-05T08:41:01.079Z,9.6
2023-01-05T08:42:03.007Z,9.6
2023-01-05T08:43:01.589Z,9.6
2023-01-05T08:44:01.112Z,9.6
2023-01-05T08:45:01.053Z,9.6
2023-01-05T08:46:01.080Z,9.6
2023-01-05T08:47:01.101Z,9.6
2023-01-05T08:48:01.124Z,9.6
2023-01-05T08:49:01.191Z,9.6
2023-01-05T08:50:01.418Z,9.6
2023-01-05T08:51:02.072Z,9.6
2023-01-05T08:52:01.201Z,9.6
2023-01-05T08:53:00.838Z,9.6
2023-01-05T08:54:00.445Z,9.6
2023-01-05T08:55:00.222Z,9.6
2023-01-05T08:55:59.951Z,9.6
2023-01-05T08:56:59.638Z,9.6
2023-01-05T08:58:01.362Z,9.6
2023-01-05T08:59:01.099Z,9.7
2023-01-05T09:00:01.103Z,9.7
2023-01-05T09:01:01.222Z,9.7
2023-01-05T09:02:02.045Z,9.7
2023-01-05T09:03:02.214Z,9.7
2023-01-05T09:04:01.163Z,9.7
2023-01-05T09:05:01.117Z,9.8
2023-01-05T09:06:01.127Z,9.8
2023-01-05T09:07:01.126Z,9.8
2023-01-05T09:08:01.155Z,9.8
2023-01-05T09:09:01.136Z,9.8
2023-01-05T09:10:01.208Z,9.8
2023-01-05T09:11:01.167Z,9.8
2023-01-05T09:12:01.553Z,9.8
2023-01-05T09:13:00.859Z,9.8
2023-01-05T09:14:01.085Z,9.8
2023-01-05T09:15:01.091Z,9.8
2023-01-05T09:16:01.081Z,9.8
2023-01-05T09:17:08.924Z,9.8
2023-01-05T09:18:01.184Z,9.8
2023-01-05T09:19:01.339Z,9.8
2023-01-05T09:20:01.501Z,9.8
2023-01-05T09:21:01.151Z,9.8
2023-01-05T09:22:01.117Z,9.8
2023-01-05T09:23:01.276Z,9.8
2023-01-05T09:24:01.060Z,9.8
2023-01-05T09:25:01.070Z,9.8
2023-01-05T09:26:01.148Z,9.8
2023-01-05T09:27:01.167Z,9.8
2023-01-05T09:28:01.883Z,9.8
2023-01-05T09:29:01.784Z,9.8
2023-01-05T09:30:01.792Z,9.8
2023-01-05T09:31:01.488Z,9.8
2023-01-05T09:31:59.731Z,9.8
2023-01-05T09:33:01.477Z,9.8
2023-01-05T09:34:01.109Z,9.8
2023-01-05T09:35:01.103Z,9.8
2023-01-05T09:36:01.191Z,9.8
2023-01-05T09:37:01.488Z,9.9
2023-01-05T09:38:02.167Z,9.9
2023-01-05T09:39:01.171Z,9.9
2023-01-05T09:40:01.120Z,9.9
2023-01-05T09:41:01.134Z,9.9
2023-01-05T09:42:01.135Z,10
2023-01-05T09:43:01.154Z,10
2023-01-05T09:44:01.206Z,10
2023-01-05T09:45:01.883Z,10
2023-01-05T09:46:02.649Z,10
2023-01-05T09:47:01.103Z,10.1
2023-01-05T09:48:01.087Z,10.1
2023-01-05T09:49:01.086Z,10.1
2023-01-05T09:50:00.855Z,10.1
2023-01-05T09:51:04.730Z,10.1
2023-01-05T09:52:01.496Z,10.2
2023-01-05T09:53:01.221Z,10.2
2023-01-05T09:54:01.533Z,10.2
2023-01-05T09:55:01.113Z,10.2
2023-01-05T09:56:08.481Z,10.1
2023-01-05T09:57:09.936Z,10.1
2023-01-05T09:58:02.593Z,10.1
2023-01-05T09:59:01.161Z,10.1
2023-01-05T10:00:01.171Z,10
2023-01-05T10:01:11.461Z,10
2023-01-05T10:02:01.257Z,9.9
2023-01-05T10:03:01.208Z,9.9
2023-01-05T10:04:03.859Z,9.8
2023-01-05T10:05:02.413Z,9.8
2023-01-05T10:06:13.793Z,9.8
2023-01-05T10:07:02.003Z,9.7
2023-01-05T10:08:01.827Z,9.7
2023-01-05T10:09:01.147Z,9.7
2023-01-05T10:10:01.121Z,9.6
2023-01-05T10:11:15.790Z,9.6
2023-01-05T10:12:01.427Z,9.6
2023-01-05T10:13:01.212Z,9.6
2023-01-05T10:14:01.172Z,9.6
2023-01-05T10:15:01.283Z,9.6
2023-01-05T10:16:01.253Z,9.6
2023-01-05T10:17:39.248Z,9.5
2023-01-05T10:18:01.305Z,9.6
2023-01-05T10:19:01.906Z,9.5
2023-01-05T10:20:01.396Z,9.5
2023-01-05T10:21:01.082Z,9.5
2023-01-05T10:22:01.089Z,9.5
2023-01-05T10:23:01.099Z,9.5
2023-01-05T10:24:01.121Z,9.5
2023-01-05T10:25:01.059Z,9.4
2023-01-05T10:26:01.115Z,9.5
2023-01-05T10:28:01.144Z,9.4
2023-01-05T10:29:01.171Z,9.4
2023-01-05T10:30:01.134Z,9.4
2023-01-05T10:31:01.207Z,9.4
2023-01-05T10:32:01.159Z,9.3
2023-01-05T10:33:25.436Z,9.3
2023-01-05T10:34:05.465Z,9.3
2023-01-05T10:35:01.203Z,9.3
2023-01-05T10:36:04.071Z,9.3
2023-01-05T10:37:09.618Z,9.3
2023-01-05T10:38:02.198Z,9.3
2023-01-05T10:39:01.063Z,9.3
2023-01-05T10:40:01.050Z,9.3
2023-01-05T10:41:01.111Z,9.3
2023-01-05T10:42:01.152Z,9.3
2023-01-05T10:43:01.225Z,9.3
2023-01-05T10:44:01.258Z,9.3
2023-01-05T10:45:03.993Z,9.4
2023-01-05T10:47:01.733Z,9.4
2023-01-05T10:48:01.145Z,9.4
2023-01-05T10:49:01.151Z,9.4
2023-01-05T10:50:01.162Z,9.4
2023-01-05T10:51:01.778Z,9.5
2023-01-05T10:52:01.764Z,9.5
2023-01-05T10:53:01.485Z,9.4
2023-01-05T10:54:01.313Z,9.5
2023-01-05T10:55:01.327Z,9.5
2023-01-05T10:56:01.344Z,9.5
2023-01-05T10:57:02.165Z,9.5
2023-01-05T10:58:01.171Z,9.5
2023-01-05T10:59:05.503Z,9.5
2023-01-05T11:00:01.133Z,9.6
2023-01-05T11:01:01.274Z,9.6
2023-01-05T11:01:59.888Z,9.6
2023-01-05T11:02:59.700Z,9.7
2023-01-05T11:05:01.623Z,9.8
2023-01-05T11:06:01.273Z,9.8
2023-01-05T11:07:01.482Z,9.8
2023-01-05T11:08:02.966Z,9.8
2023-01-05T11:09:01.460Z,9.8
2023-01-05T11:10:01.261Z,9.9
2023-01-05T11:11:01.145Z,9.9
2023-01-05T11:12:01.291Z,9.9
2023-01-05T11:13:01.140Z,10
2023-01-05T11:14:01.541Z,10
2023-01-05T11:15:01.237Z,9.9
2023-01-05T11:16:01.276Z,10
2023-01-05T11:17:01.233Z,10
2023-01-05T11:18:01.068Z,10
2023-01-05T11:19:01.058Z,10
2023-01-05T11:20:01.210Z,10
2023-01-05T11:21:01.158Z,10
2023-01-05T11:22:03.061Z,10
2023-01-05T11:23:02.109Z,10.1
2023-01-05T11:24:02.149Z,10.1
2023-01-05T11:25:01.087Z,10.1
2023-01-05T11:26:01.094Z,10.1
2023-01-05T11:27:01.125Z,10.1
2023-01-05T11:28:05.222Z,10.1
2023-01-05T11:29:01.132Z,10.2
2023-01-05T11:30:01.122Z,10.2
2023-01-05T11:31:01.238Z,10.2
2023-01-05T11:32:01.523Z,10.2
2023-01-05T11:33:01.616Z,10.2
2023-01-05T11:34:02.862Z,10.3
2023-01-05T11:35:01.253Z,10.3
2023-01-05T11:36:01.179Z,10.3
2023-01-05T11:37:07.416Z,10.3
2023-01-05T11:38:01.182Z,10.3
2023-01-05T11:39:01.796Z,10.3
2023-01-05T11:40:01.098Z,10.3
2023-01-05T11:41:01.091Z,10.3
2023-01-05T11:42:01.457Z,10.3
2023-01-05T11:43:02.953Z,10.3
2023-01-05T11:44:01.199Z,10.4
2023-01-05T11:45:01.127Z,10.4
2023-01-05T11:46:01.167Z,10.4
2023-01-05T11:47:03.951Z,10.5
2023-01-05T11:48:01.170Z,10.5
2023-01-05T11:49:01.100Z,10.5
2023-01-05T11:50:05.504Z,10.5
2023-01-05T11:51:01.135Z,10.5
2023-01-05T11:52:06.555Z,10.5
2023-01-05T11:53:00.831Z,10.5
2023-01-05T11:54:00.463Z,10.5
2023-01-05T11:55:00.148Z,10.6
2023-01-05T11:55:59.708Z,10.6
2023-01-05T11:57:09.707Z,10.6
2023-01-05T11:58:02.848Z,10.6
2023-01-05T11:59:01.731Z,10.6
2023-01-05T12:00:01.796Z,10.6
2023-01-05T12:01:01.755Z,10.7
2023-01-05T12:02:10.951Z,10.6
2023-01-05T12:03:01.555Z,10.7
2023-01-05T12:04:01.258Z,10.7
2023-01-05T12:05:02.505Z,10.7
2023-01-05T12:06:01.165Z,10.7
2023-01-05T12:07:16.562Z,10.7
2023-01-05T12:08:01.269Z,10.7
2023-01-05T12:09:01.227Z,10.7
2023-01-05T12:10:02.559Z,10.8
2023-01-05T12:11:01.064Z,10.7
2023-01-05T12:12:01.075Z,10.8
2023-01-05T12:13:01.504Z,10.8
2023-01-05T12:14:01.166Z,10.8
2023-01-05T12:15:01.515Z,10.8
2023-01-05T12:16:02.366Z,10.8
2023-01-05T12:17:01.911Z,10.9
2023-01-05T12:18:01.446Z,10.8
2023-01-05T12:19:01.430Z,10.9
2023-01-05T12:20:02.180Z,10.9
2023-01-05T12:21:02.765Z,10.9
2023-01-05T12:22:02.806Z,10.9
2023-01-05T12:23:01.436Z,10.9
2023-01-05T12:24:01.174Z,10.9
2023-01-05T12:25:01.543Z,10.9
2023-01-05T12:26:01.221Z,10.9
2023-01-05T12:27:01.139Z,10.9
2023-01-05T12:28:05.182Z,10.9
2023-01-05T12:34:01.469Z,10.9
2023-01-05T12:34:03.284Z,11
2023-01-05T12:35:02.260Z,11
2023-01-05T12:36:01.134Z,11
2023-01-05T12:37:01.788Z,11
2023-01-05T12:38:01.850Z,11
2023-01-05T12:39:01.538Z,11
2023-01-05T12:40:01.232Z,11
2023-01-05T12:41:01.215Z,11
2023-01-05T12:42:01.373Z,11
2023-01-05T12:43:01.980Z,11
2023-01-05T12:44:02.042Z,11
2023-01-05T12:45:01.110Z,11
2023-01-05T12:46:01.108Z,11
2023-01-05T12:47:01.142Z,10.9
2023-01-05T12:48:01.488Z,10.9
2023-01-05T12:49:01.094Z,10.9
2023-01-05T12:50:01.142Z,10.9
2023-01-05T12:51:01.139Z,10.8
2023-01-05T12:52:06.795Z,10.8
2023-01-05T12:53:01.147Z,10.8
2023-01-05T12:54:01.237Z,10.9
2023-01-05T12:55:01.500Z,10.8
2023-01-05T12:56:01.349Z,10.8
2023-01-05T12:57:01.489Z,10.8
2023-01-05T12:58:01.124Z,10.8
2023-01-05T12:59:01.158Z,10.8
2023-01-05T13:00:01.128Z,10.8
2023-01-05T13:01:01.277Z,10.7
2023-01-05T13:02:02.140Z,10.7
2023-01-05T13:03:01.201Z,10.6
2023-01-05T13:04:01.907Z,10.6
2023-01-05T13:05:01.642Z,10.6
2023-01-05T13:06:01.649Z,10.5
2023-01-05T13:07:02.282Z,10.5
2023-01-05T13:08:01.260Z,10.5
2023-01-05T13:09:02.040Z,10.5
2023-01-05T13:10:03.421Z,10.5
2023-01-05T13:11:01.140Z,10.5
2023-01-05T13:12:01.153Z,10.5
2023-01-05T13:13:01.163Z,10.5
2023-01-05T13:14:00.948Z,10.4
2023-01-05T13:15:01.464Z,10.4
2023-01-05T13:16:01.183Z,10.4
2023-01-05T13:17:02.228Z,10.3
2023-01-05T13:18:02.009Z,10.3
2023-01-05T13:19:04.751Z,10.3
2023-01-05T13:20:01.084Z,10.3
2023-01-05T13:21:01.099Z,10.3
2023-01-05T13:22:01.099Z,10.3
2023-01-05T13:23:01.430Z,10.3
2023-01-05T13:24:01.495Z,10.2
2023-01-05T13:25:01.129Z,10.1
2023-01-05T13:26:01.149Z,10.1
2023-01-05T13:27:01.161Z,10.1
2023-01-05T13:28:01.227Z,10
2023-01-05T13:29:01.534Z,10
2023-01-05T13:30:01.151Z,10
2023-01-05T13:31:01.254Z,10
2023-01-05T13:31:59.440Z,10
2023-01-05T13:33:03.280Z,10
2023-01-05T13:34:00.670Z,10
2023-01-05T13:35:00.351Z,10
2023-01-05T13:36:00.108Z,9.9
2023-01-05T13:36:59.755Z,9.9
2023-01-05T13:38:03.288Z,9.9
2023-01-05T13:39:01.931Z,9.9
2023-01-05T13:40:01.110Z,9.9
2023-01-05T13:41:01.123Z,9.9
2023-01-05T13:42:01.138Z,9.9
2023-01-05T13:44:01.517Z,9.9
2023-01-05T13:45:01.567Z,9.9
2023-01-05T13:46:02.192Z,10
2023-01-05T13:47:00.641Z,10
2023-01-05T13:48:12.628Z,10
2023-01-05T13:49:04.875Z,10
2023-01-05T13:50:01.187Z,10
2023-01-05T13:51:01.110Z,10
2023-01-05T13:52:01.354Z,10
2023-01-05T13:53:11.864Z,10